Latest Coastal Weather Observations for Cape Byron

IDN60701

Issued at 3:02 pm EST Tuesday 4 August 2020 (issued every 10 minutes, with the page automatically refreshed every 10 minutes)

About coastal observations | Map of coastal stations | Coastal observations for NSW | Marine services | Other Formats
Station Details ID: 058216 Name: CAPE BYRON AWS Lat: -28.64 Lon: 153.64 Height: 95.0 m
Data from the previous 72 hours. | See also: Recent months at Cape Byron
Date/Time
EST
Wind Sea
Height
m
Swell Vis
km
Cloud Weather Temp
°C
Press
hPa
Rain since
9am
mm
Dir  Spd
kts
Gust
kts
Height
m
Period
s
Dir
04/02:30pm N 13 18 - - - - - - - 19.7 1012.4 0.0
04/02:00pm NNE 14 22 - - - - - - - 20.2 1012.6 0.0
04/01:30pm NNE 11 17 - - - - - - - 21.0 1013.0 0.0
04/01:00pm NNE 11 15 - - - - - - - 20.9 1013.3 0.0
04/12:30pm N 9 14 - - - - - - - 21.0 1013.8 0.0
04/12:00pm N 8 12 - - - - - - - 21.2 1014.5 0.0
04/11:30am NNW 6 10 - - - - - - - 21.1 1015.2 0.0
04/11:00am N 5 7 - - - - - - - 20.6 1015.8 0.0
04/10:30am NW 4 7 - - - - - - - 19.1 1016.4 0.0
04/10:00am NW 4 6 - - - - - - - 18.6 1016.8 0.0
04/09:30am NW 4 7 - - - - - - - 17.7 1017.1 0.0
04/09:00am NW 5 7 - - - - - - - 17.3 1017.1 0.0
04/08:30am NW 4 6 - - - - - - - 16.8 1017.1 0.0
04/08:00am NW 7 12 - - - - - - - 16.5 1017.1 0.0
04/07:30am WNW 5 9 - - - - - - - 15.7 1017.0 0.0
04/07:00am NW 4 9 - - - - - - - 15.7 1016.8 0.0
04/06:30am NW 6 9 - - - - - - - 15.8 1016.6 0.0
04/06:00am NW 5 7 - - - - - - - 15.6 1016.6 0.0
04/05:30am NW 4 6 - - - - - - - 15.4 1016.6 0.0
04/05:00am NW 5 8 - - - - - - - 15.4 1016.6 0.0
04/04:30am NW 5 7 - - - - - - - 15.4 1016.5 0.0
04/04:00am NW 5 6 - - - - - - - 15.2 1016.6 0.0
04/03:30am WNW 5 7 - - - - - - - 14.7 1016.9 0.0
04/03:00am NW 4 7 - - - - - - - 14.8 1017.0 0.0
04/02:30am WNW 4 6 - - - - - - - 14.8 1017.0 0.0
04/02:00am NW 5 7 - - - - - - - 15.8 1017.0 0.0
04/01:30am NNW 5 9 - - - - - - - 15.6 1017.0 0.0
04/01:00am NW 5 9 - - - - - - - 14.9 1017.3 0.0
04/12:30am NW 5 7 - - - - - - - 15.0 1017.8 0.0
04/12:00am NW 5 7 - - - - - - - 14.6 1018.1 0.0
 
Date/Time
EST
Wind Sea
Height
m
Swell Vis
km
Cloud Weather Temp
°C
Press
hPa
Rain since
9am
mm
Dir  Spd
kts
Gust
kts
Height
m
Period
s
Dir
03/11:30pm WNW 4 7 - - - - - - - 14.4 1018.2 0.0
03/11:00pm NW 5 8 - - - - - - - 15.5 1018.1 0.0
03/10:30pm NW 6 11 - - - - - - - 16.3 1018.1 0.0
03/10:00pm NW 5 8 - - - - - - - 16.2 1018.2 0.0
03/09:30pm NNW 6 9 - - - - - - - 16.5 1018.3 0.0
03/09:00pm NNW 4 6 - - - - - - - 16.3 1018.2 0.0
03/08:30pm NNW 7 11 - - - - - - - 17.6 1018.2 0.0
03/08:00pm N 10 15 - - - - - - - 17.9 1018.1 0.0
03/07:30pm N 10 13 - - - - - - - 18.0 1018.0 0.0
03/07:00pm NNE 9 13 - - - - - - - 17.9 1017.9 0.0
03/06:30pm NNE 10 14 - - - - - - - 17.9 1017.9 0.0
03/06:00pm NNE 9 13 - - - - - - - 17.9 1017.9 0.0
03/05:30pm NE 8 12 - - - - - - - 17.9 1018.0 0.0
03/05:00pm NE 8 12 - - - - - - - 18.1 1018.0 0.0
03/04:30pm NNE 8 11 - - - - - - - 18.8 1018.1 0.0
03/04:00pm NE 9 11 - - - - - - - 19.3 1018.3 0.0
03/03:30pm NE 8 11 - - - - - - - 19.2 1018.3 0.0
03/03:00pm NE 10 11 - - - - - - - 19.4 1018.4 0.0
03/02:30pm NE 9 11 - - - - - - - 21.4 1018.5 0.0
03/02:00pm ENE 6 9 - - - - - - - 21.2 1018.8 0.0
03/01:30pm ENE 7 9 - - - - - - - 21.1 1019.2 0.0
03/01:00pm ENE 7 7 - - - - - - - 21.1 1019.6 0.0
03/12:30pm ENE 6 7 - - - - - - - 21.2 1020.0 0.0
03/12:00pm E 5 7 - - - - - - - 20.9 1020.7 0.0
03/11:30am ESE 5 6 - - - - - - - 19.9 1021.3 0.0
03/11:00am SSW 4 6 - - - - - - - 18.9 1021.8 0.0
03/10:30am SW 7 10 - - - - - - - 18.2 1022.1 0.0
03/10:00am SW 7 11 - - - - - - - 17.6 1022.5 0.0
03/09:30am SW 7 11 - - - - - - - 16.6 1022.5 0.0
03/09:00am SW 9 13 - - - - - - - 15.5 1022.4 0.0
03/08:30am SW 8 10 - - - - - - - 14.7 1022.3 0.0
03/08:00am SW 9 11 - - - - - - - 13.9 1022.2 0.0
03/07:30am SW 10 13 - - - - - - - 13.1 1022.2 0.0
03/07:00am SW 11 14 - - - - - - - 13.2 1022.0 0.0
03/06:30am SW 13 16 - - - - - - - 13.6 1021.9 0.0
03/06:00am SW 13 15 - - - - - - - 13.7 1021.6 0.0
03/05:30am SW 10 12 - - - - - - - 14.5 1021.3 0.0
03/05:00am WSW 8 10 - - - - - - - 14.7 1021.1 0.0
03/04:30am WSW 6 8 - - - - - - - 15.1 1020.9 0.0
03/04:00am SW 6 7 - - - - - - - 15.6 1021.0 0.0
03/03:30am SSW 4 5 - - - - - - - 15.9 1021.1 0.0
03/03:00am S 4 4 - - - - - - - 16.3 1021.3 0.0
03/02:30am SSW 4 5 - - - - - - - 16.4 1021.5 0.0
03/02:00am CALM 0 0 - - - - - - - 16.6 1021.7 0.0
03/01:30am CALM 0 0 - - - - - - - 16.6 1022.1 0.0
03/01:00am ENE 4 5 - - - - - - - 16.7 1022.3 0.0
03/12:30am ENE 3 5 - - - - - - - 16.5 1022.5 0.0
03/12:00am E 6 7 - - - - - - - 16.9 1022.6 0.0
 
Date/Time
EST
Wind Sea
Height
m
Swell Vis
km
Cloud Weather Temp
°C
Press
hPa
Rain since
9am
mm
Dir  Spd
kts
Gust
kts
Height
m
Period
s
Dir
02/11:30pm ESE 5 7 - - - - - - - 17.0 1022.8 0.0
02/11:00pm ESE 4 6 - - - - - - - 16.9 1023.0 0.0
02/10:30pm NNE 2 4 - - - - - - - 17.0 1023.2 0.0
02/10:00pm NNE 3 5 - - - - - - - 16.9 1023.3 0.0
02/09:30pm NE 5 9 - - - - - - - 16.8 1023.3 0.0
02/09:00pm NE 6 10 - - - - - - - 16.9 1023.5 0.0
02/08:30pm E 7 10 - - - - - - - 17.1 1023.4 0.0
02/08:00pm E 8 11 - - - - - - - 16.9 1023.3 0.0
02/07:30pm E 8 11 - - - - - - - 17.0 1023.4 0.0
02/07:00pm E 8 10 - - - - - - - 17.3 1023.3 0.0
02/06:30pm E 8 12 - - - - - - - 17.3 1023.2 0.0
02/06:00pm E 9 11 - - - - - - - 16.9 1023.1 0.0
02/05:30pm E 9 11 - - - - - - - 17.1 1022.9 0.0
02/05:00pm E 9 12 - - - - - - - 17.4 1022.9 0.0
02/04:30pm E 10 13 - - - - - - - 18.1 1022.7 0.0
02/04:00pm E 11 13 - - - - - - - 18.8 1022.5 0.0
02/03:30pm E 11 13 - - - - - - - 19.6 1022.5 0.0
02/03:00pm E 9 12 - - - - - - - 20.2 1022.4 0.0
02/02:30pm ENE 9 11 - - - - - - - 20.5 1022.5 0.0
02/02:00pm E 6 10 - - - - - - - 20.2 1022.9 0.0
02/01:30pm ENE 7 8 - - - - - - - 21.0 1023.2 0.0
02/01:00pm ENE 7 9 - - - - - - - 20.6 1023.4 0.0
02/12:30pm E 7 8 - - - - - - - 20.3 1023.8 0.0
02/12:00pm ENE 6 8 - - - - - - - 20.4 1024.4 0.0
02/11:30am SSW 1 4 - - - - - - - 19.1 1024.9 0.0
02/11:00am S 3 4 - - - - - - - 18.6 1025.2 0.0
02/10:30am SW 6 9 - - - - - - - 17.6 1025.7 0.0
02/10:00am SW 10 13 - - - - - - - 16.4 1026.1 0.0
02/09:30am SW 11 14 - - - - - - - 15.5 1026.2 0.0
02/09:00am SW 10 13 - - - - - - - 14.8 1026.2 0.0
02/08:30am SW 11 14 - - - - - - - 14.3 1025.8 0.0
02/08:00am SW 12 16 - - - - - - - 13.6 1025.6 0.0
02/07:30am SW 13 16 - - - - - - - 13.4 1025.5 0.0
02/07:00am SW 12 15 - - - - - - - 13.6 1025.3 0.0
02/06:30am SW 13 16 - - - - - - - 13.4 1025.0 0.0
02/06:00am SW 13 16 - - - - - - - 13.4 1024.5 0.0
02/05:30am SW 12 15 - - - - - - - 13.5 1024.3 0.0
02/05:00am SW 10 12 - - - - - - - 14.3 1023.9 0.0
02/04:30am SW 8 10 - - - - - - - 14.4 1023.7 0.0
02/04:00am WSW 7 9 - - - - - - - 14.4 1023.7 0.0
02/03:30am WSW 9 12 - - - - - - - 14.2 1023.9 0.0
02/03:00am SW 10 13 - - - - - - - 14.5 1023.9 0.0
02/02:30am SW 10 13 - - - - - - - 14.1 1024.1 0.0
02/02:00am SW 11 14 - - - - - - - 14.1 1024.2 0.0
02/01:30am SSW 12 14 - - - - - - - 14.9 1024.3 0.0
02/01:00am SSW 10 12 - - - - - - - 15.2 1024.5 0.0
02/12:30am SSW 9 11 - - - - - - - 14.9 1024.8 0.0
02/12:00am SSW 9 10 - - - - - - - 14.9 1025.0 0.0
 
Date/Time
EST
Wind Sea
Height
m
Swell Vis
km
Cloud Weather Temp
°C
Press
hPa
Rain since
9am
mm
Dir  Spd
kts
Gust
kts
Height
m
Period
s
Dir
01/11:30pm SSW 8 10 - - - - - - - 15.1 1025.1 0.0
01/11:00pm SW 8 10 - - - - - - - 15.3 1025.1 0.0
01/10:30pm SSW 8 9 - - - - - - - 15.2 1025.3 0.0
01/10:00pm SSW 9 11 - - - - - - - 15.1 1025.3 0.0
01/09:30pm SSW 9 10 - - - - - - - 14.4 1025.4 0.0
01/09:00pm SSW 10 11 - - - - - - - 14.4 1025.4 0.0
01/08:30pm SSW 9 12 - - - - - - - 14.6 1025.3 0.0
01/08:00pm SSW 11 13 - - - - - - - 14.6 1025.0 0.0
01/07:30pm SSW 11 13 - - - - - - - 14.3 1025.1 0.0
01/07:00pm SSW 9 13 - - - - - - - 14.7 1025.0 0.0
01/06:30pm SSW 11 15 - - - - - - - 15.4 1024.6 0.0
01/06:00pm SSW 11 15 - - - - - - - 15.7 1024.2 0.0
01/05:30pm SSW 12 15 - - - - - - - 15.8 1023.9 0.0
01/05:00pm SSW 13 16 - - - - - - - 16.1 1023.8 0.0
01/04:30pm S 14 18 - - - - - - - 16.5 1023.6 0.0
01/04:00pm S 15 19 - - - - - - - 16.8 1023.7 0.0
01/03:30pm S 17 20 - - - - - - - 16.7 1023.6 0.0

Other formats

Comma delimited format used in spreadsheet applications
http://www.bom.gov.au/fwo/IDN60701/IDN60701.94599.axf

JavaScript Object Notation format (JSON) in row-major order
http://www.bom.gov.au/fwo/IDN60701/IDN60701.94599.json

Data quality

Most of these data are generated automatically and are frequently updated. Quality checks on data are not normally performed. It is possible for incorrect values to appear. Refer to information at About Latest Weather Observations and please check the disclaimer before using these data.